Accueil
METAR-TAF:

METAR-TAF

Aéroports :

Aéroport de Shoreham

Brighton, Angleterre

latitude: 50-50N, longitude: 000-17W, altitude: 2 m

Observation

Le bulletin a été fait il y a 7 heures et 35 minutes, à 18:50 UTC
Vent 2 kt de sud
Température 6°C
Humidité 70%
Pression 1029 hPa
Visibilité 10 km ou plus
pas de nuages en-dessous de 1500 mètres et pas de cumulonimbus.

METAR: EGKA 161850Z 19002KT CAVOK 06/01 Q1029

Heure: 03:25 (02:25 UTC)

Prévision

Le bulletin a été fait il y a 12 heures et 24 minutes, à 14:01 UTC
Prévision valable du 16 à 15 UTC au 16 à 19 UTC
Vent 8 kt de nord/nord-est
Visibilité 10 km ou plus
Quelques nuages à une hauteur de 4500 ft
Probabilité 40%
du 16 à 15 UTC au 16 à 17 UTC
Vent 10 kt de sud/sud-est

TAF: EGKA 161401Z 1615/1619 03008KT 9999 FEW045 PROB40 1615/1617 16010KT

Observations et prévisions météorologiques de plus de 4000 aéroports (messages METAR et TAF).

Les stations disponibles sont représentées par des disques jaunes et rouges sur la carte.

Passer la souris dessus pour voir le nom de la station.

Cliquer dessus pour voir les observations et prévisions météorologiques.

Pour changer de carte: cliquez sur les boutons verts avec une croix noire pour zoomer, sur le bouton vert avec un tiret pour effectuer un zoom arrière, ou sur les flèches vertes pour les cartes adjacentes.


METAR-TAF: